Flugplatz Münster Osnabrück

Bericht für EDDG

vom 26.06. um 21:20 UTC

Wind 11 kt aus 350°

Sichtweite 10 km oder mehr

gute Sicht, keine Wolken < 5000 ft, keine CB, keine Wettererscheinungen (CAVOK)

Temperatur 17.0°C

Taupunkt 12.0°C

Luftfeuchtigkeit 72%

Luftdruck 1026 hPa

keine wesentliche Wetteränderung innerhalb den nächsten 2 Stunden zu erwarten

EDDG 262120Z 35011KT CAVOK 17/12 Q1026 NOSIG

Prognose für EDDG

vom 26.06. um 00:00 UTC

Zwischen 00:00 UTC und 00:00 UTC

Wind 7 kt aus 350°

Sichtweite 10 km oder mehr

keine signifikanten Wettererscheinungen

keine Wolken


Am 27.06. zwischen 00:00 UTC und 00:00 UTC zeitweise mit einer Wahrscheinlichkeit von 30%

aufgebrochene Bewölkung in 1000 ft

TAF EDDG 261700Z 2618/2718 35007KT CAVOK PROB30 TEMPO 2703/2707 BKN010
Impressum